sensor_id;sensor_type;location;lat;lon;timestamp;pressure;altitude;pressure_sealevel;temperature
48628;BMP280;34424;52.234;6.500;2023-05-16T00:04:50;61875.00;;;9.07
48628;BMP280;34424;52.234;6.500;2023-05-16T00:09:53;61836.78;;;8.96
48628;BMP280;34424;52.234;6.500;2023-05-16T00:14:56;61838.94;;;8.75
48628;BMP280;34424;52.234;6.500;2023-05-16T00:20:01;61821.97;;;8.59
48628;BMP280;34424;52.234;6.500;2023-05-16T00:25:11;61792.66;;;8.48
48628;BMP280;34424;52.234;6.500;2023-05-16T00:30:14;61820.94;;;8.36
48628;BMP280;34424;52.234;6.500;2023-05-16T00:35:18;61808.25;;;8.26
48628;BMP280;34424;52.234;6.500;2023-05-16T00:40:21;61840.28;;;8.19
48628;BMP280;34424;52.234;6.500;2023-05-16T00:45:24;61777.25;;;8.09
48628;BMP280;34424;52.234;6.500;2023-05-16T00:50:28;61776.00;;;8.00
48628;BMP280;34424;52.234;6.500;2023-05-16T00:55:31;61748.81;;;7.91
48628;BMP280;34424;52.234;6.500;2023-05-16T01:00:34;61777.16;;;7.81
48628;BMP280;34424;52.234;6.500;2023-05-16T01:05:39;61744.72;;;7.70
48628;BMP280;34424;52.234;6.500;2023-05-16T01:10:49;61751.75;;;7.59
48628;BMP280;34424;52.234;6.500;2023-05-16T01:16:03;61726.63;;;7.50
48628;BMP280;34424;52.234;6.500;2023-05-16T01:21:13;61696.84;;;7.39
48628;BMP280;34424;52.234;6.500;2023-05-16T01:26:20;61717.81;;;7.27
48628;BMP280;34424;52.234;6.500;2023-05-16T01:31:24;61694.84;;;7.20
48628;BMP280;34424;52.234;6.500;2023-05-16T01:36:30;61703.91;;;7.08
48628;BMP280;34424;52.234;6.500;2023-05-16T01:41:44;61664.81;;;6.98
48628;BMP280;34424;52.234;6.500;2023-05-16T01:46:54;61689.59;;;6.95
48628;BMP280;34424;52.234;6.500;2023-05-16T01:52:00;61661.84;;;6.83
48628;BMP280;34424;52.234;6.500;2023-05-16T01:57:28;61694.47;;;6.82
48628;BMP280;34424;52.234;6.500;2023-05-16T02:02:32;61640.78;;;6.68
48628;BMP280;34424;52.234;6.500;2023-05-16T02:07:35;61653.03;;;6.60
48628;BMP280;34424;52.234;6.500;2023-05-16T02:12:39;61627.97;;;6.51
48628;BMP280;34424;52.234;6.500;2023-05-16T02:17:42;61622.56;;;6.40
48628;BMP280;34424;52.234;6.500;2023-05-16T02:22:44;61615.59;;;6.31
48628;BMP280;34424;52.234;6.500;2023-05-16T02:27:51;61617.97;;;6.21
48628;BMP280;34424;52.234;6.500;2023-05-16T02:32:55;61613.19;;;6.17
48628;BMP280;34424;52.234;6.500;2023-05-16T02:37:58;61627.25;;;6.20
48628;BMP280;34424;52.234;6.500;2023-05-16T02:43:02;61576.88;;;6.14
48628;BMP280;34424;52.234;6.500;2023-05-16T02:48:05;61602.13;;;6.08
48628;BMP280;34424;52.234;6.500;2023-05-16T02:53:10;61578.19;;;6.03
48628;BMP280;34424;52.234;6.500;2023-05-16T02:58:14;61608.59;;;5.97
48628;BMP280;34424;52.234;6.500;2023-05-16T03:03:17;61588.31;;;5.93
48628;BMP280;34424;52.234;6.500;2023-05-16T03:08:20;61568.81;;;5.79
48628;BMP280;34424;52.234;6.500;2023-05-16T03:13:24;61599.19;;;5.73
48628;BMP280;34424;52.234;6.500;2023-05-16T03:18:27;61555.69;;;5.71
48628;BMP280;34424;52.234;6.500;2023-05-16T03:23:31;61549.47;;;5.70
48628;BMP280;34424;52.234;6.500;2023-05-16T03:28:35;61555.56;;;5.66
48628;BMP280;34424;52.234;6.500;2023-05-16T03:33:39;61566.84;;;5.62
48628;BMP280;34424;52.234;6.500;2023-05-16T03:38:42;61562.88;;;5.68
48628;BMP280;34424;52.234;6.500;2023-05-16T03:43:46;61592.22;;;5.64
48628;BMP280;34424;52.234;6.500;2023-05-16T03:48:49;61550.28;;;5.61
48628;BMP280;34424;52.234;6.500;2023-05-16T03:53:52;61523.38;;;5.60
48628;BMP280;34424;52.234;6.500;2023-05-16T03:58:56;61575.13;;;5.63
48628;BMP280;34424;52.234;6.500;2023-05-16T04:03:59;61594.97;;;5.69
48628;BMP280;34424;52.234;6.500;2023-05-16T04:09:02;61574.63;;;5.84
48628;BMP280;34424;52.234;6.500;2023-05-16T04:14:09;61572.63;;;5.88
48628;BMP280;34424;52.234;6.500;2023-05-16T04:19:12;61602.88;;;5.97
48628;BMP280;34424;52.234;6.500;2023-05-16T04:24:15;61588.53;;;6.03
48628;BMP280;34424;52.234;6.500;2023-05-16T04:29:19;61605.34;;;6.14
48628;BMP280;34424;52.234;6.500;2023-05-16T04:34:22;61601.06;;;6.30
48628;BMP280;34424;52.234;6.500;2023-05-16T04:39:28;61701.19;;;6.81
48628;BMP280;34424;52.234;6.500;2023-05-16T04:44:32;61735.72;;;7.61
48628;BMP280;34424;52.234;6.500;2023-05-16T04:49:35;61820.41;;;8.35
48628;BMP280;34424;52.234;6.500;2023-05-16T04:54:38;61839.38;;;8.71
48628;BMP280;34424;52.234;6.500;2023-05-16T04:59:43;61826.03;;;8.30
48628;BMP280;34424;52.234;6.500;2023-05-16T05:04:45;61803.66;;;8.29
48628;BMP280;34424;52.234;6.500;2023-05-16T05:09:49;61840.47;;;8.74
48628;BMP280;34424;52.234;6.500;2023-05-16T05:14:55;61958.16;;;10.02
48628;BMP280;34424;52.234;6.500;2023-05-16T05:19:58;62060.63;;;10.95
48628;BMP280;34424;52.234;6.500;2023-05-16T05:25:04;62123.19;;;11.45
48628;BMP280;34424;52.234;6.500;2023-05-16T05:30:09;62161.44;;;12.06
48628;BMP280;34424;52.234;6.500;2023-05-16T05:35:13;62201.81;;;12.40
48628;BMP280;34424;52.234;6.500;2023-05-16T05:40:18;62164.44;;;12.54
48628;BMP280;34424;52.234;6.500;2023-05-16T05:45:22;62285.84;;;13.15
48628;BMP280;34424;52.234;6.500;2023-05-16T05:50:26;62327.53;;;13.60
48628;BMP280;34424;52.234;6.500;2023-05-16T05:55:28;62338.81;;;13.75
48628;BMP280;34424;52.234;6.500;2023-05-16T06:00:33;62305.97;;;13.54
48628;BMP280;34424;52.234;6.500;2023-05-16T06:05:36;62376.66;;;13.81
48628;BMP280;34424;52.234;6.500;2023-05-16T06:10:39;62385.47;;;14.37
48628;BMP280;34424;52.234;6.500;2023-05-16T06:15:49;62447.06;;;14.79
48628;BMP280;34424;52.234;6.500;2023-05-16T06:20:52;62401.91;;;14.46
48628;BMP280;34424;52.234;6.500;2023-05-16T06:25:56;62493.25;;;15.40
48628;BMP280;34424;52.234;6.500;2023-05-16T06:31:00;62495.53;;;15.20
48628;BMP280;34424;52.234;6.500;2023-05-16T06:36:04;62543.16;;;15.70
48628;BMP280;34424;52.234;6.500;2023-05-16T06:41:07;62553.75;;;15.75
48628;BMP280;34424;52.234;6.500;2023-05-16T06:46:13;62378.25;;;14.43
48628;BMP280;34424;52.234;6.500;2023-05-16T06:51:16;62516.94;;;15.43
48628;BMP280;34424;52.234;6.500;2023-05-16T06:56:22;62537.97;;;15.75
48628;BMP280;34424;52.234;6.500;2023-05-16T07:01:30;62543.94;;;15.86
48628;BMP280;34424;52.234;6.500;2023-05-16T07:06:35;62612.91;;;16.56
48628;BMP280;34424;52.234;6.500;2023-05-16T07:11:38;62708.34;;;17.32
48628;BMP280;34424;52.234;6.500;2023-05-16T07:16:43;62777.38;;;17.65
48628;BMP280;34424;52.234;6.500;2023-05-16T07:21:46;62711.69;;;17.45
48628;BMP280;34424;52.234;6.500;2023-05-16T07:26:49;62785.13;;;17.90
48628;BMP280;34424;52.234;6.500;2023-05-16T07:31:53;62390.72;;;14.37
48628;BMP280;34424;52.234;6.500;2023-05-16T07:36:56;62359.94;;;13.86
48628;BMP280;34424;52.234;6.500;2023-05-16T07:41:59;62510.59;;;15.09
48628;BMP280;34424;52.234;6.500;2023-05-16T07:47:03;62368.25;;;13.81
48628;BMP280;34424;52.234;6.500;2023-05-16T07:52:10;62328.59;;;13.91
48628;BMP280;34424;52.234;6.500;2023-05-16T07:57:13;62592.97;;;16.27
48628;BMP280;34424;52.234;6.500;2023-05-16T08:02:21;62797.06;;;17.76
48628;BMP280;34424;52.234;6.500;2023-05-16T08:07:30;62856.41;;;18.28
48628;BMP280;34424;52.234;6.500;2023-05-16T08:12:33;62850.75;;;18.37
48628;BMP280;34424;52.234;6.500;2023-05-16T08:17:37;62832.94;;;18.46
48628;BMP280;34424;52.234;6.500;2023-05-16T08:22:40;62954.91;;;19.16
48628;BMP280;34424;52.234;6.500;2023-05-16T08:27:44;62737.84;;;17.33
48628;BMP280;34424;52.234;6.500;2023-05-16T08:32:49;62392.91;;;14.12
48628;BMP280;34424;52.234;6.500;2023-05-16T08:37:53;62510.66;;;15.44
48628;BMP280;34424;52.234;6.500;2023-05-16T08:43:00;62703.72;;;17.40
48628;BMP280;34424;52.234;6.500;2023-05-16T08:48:05;62889.47;;;18.84
48628;BMP280;34424;52.234;6.500;2023-05-16T08:53:13;62924.88;;;18.85
48628;BMP280;34424;52.234;6.500;2023-05-16T08:58:20;62629.31;;;16.62
48628;BMP280;34424;52.234;6.500;2023-05-16T09:03:24;62448.94;;;14.65
48628;BMP280;34424;52.234;6.500;2023-05-16T09:08:31;62572.38;;;16.23
48628;BMP280;34424;52.234;6.500;2023-05-16T09:13:36;62790.56;;;18.00
48628;BMP280;34424;52.234;6.500;2023-05-16T09:18:42;62779.56;;;18.05
48628;BMP280;34424;52.234;6.500;2023-05-16T09:23:47;62692.56;;;17.00
48628;BMP280;34424;52.234;6.500;2023-05-16T09:28:53;62549.84;;;15.61
48628;BMP280;34424;52.234;6.500;2023-05-16T09:33:58;62598.94;;;16.38
48628;BMP280;34424;52.234;6.500;2023-05-16T09:44:34;62867.94;;;18.59
48628;BMP280;34424;52.234;6.500;2023-05-16T09:49:39;62894.84;;;18.92
48628;BMP280;34424;52.234;6.500;2023-05-16T09:54:42;62978.44;;;19.33
48628;BMP280;34424;52.234;6.500;2023-05-16T09:59:46;62583.84;;;15.84
48628;BMP280;34424;52.234;6.500;2023-05-16T10:04:50;62491.97;;;15.26
48628;BMP280;34424;52.234;6.500;2023-05-16T10:09:53;62556.59;;;15.58
48628;BMP280;34424;52.234;6.500;2023-05-16T10:14:59;62524.72;;;15.38
48628;BMP280;34424;52.234;6.500;2023-05-16T10:20:05;62473.63;;;14.96
48628;BMP280;34424;52.234;6.500;2023-05-16T10:25:16;62597.81;;;16.02
48628;BMP280;34424;52.234;6.500;2023-05-16T10:30:21;62713.28;;;17.12
48628;BMP280;34424;52.234;6.500;2023-05-16T10:35:26;62863.22;;;18.59
48628;BMP280;34424;52.234;6.500;2023-05-16T10:40:30;62797.91;;;18.35
48628;BMP280;34424;52.234;6.500;2023-05-16T10:45:34;62974.28;;;19.40
48628;BMP280;34424;52.234;6.500;2023-05-16T10:50:44;62854.88;;;18.31
48628;BMP280;34424;52.234;6.500;2023-05-16T10:55:49;62786.06;;;17.81
48628;BMP280;34424;52.234;6.500;2023-05-16T11:01:13;62688.75;;;16.91
48628;BMP280;34424;52.234;6.500;2023-05-16T11:06:23;62583.84;;;15.84
48628;BMP280;34424;52.234;6.500;2023-05-16T11:11:42;62724.28;;;17.07
48628;BMP280;34424;52.234;6.500;2023-05-16T11:16:50;62732.63;;;17.35
48628;BMP280;34424;52.234;6.500;2023-05-16T11:22:19;62608.75;;;16.27
48628;BMP280;34424;52.234;6.500;2023-05-16T11:27:25;62608.47;;;16.42
48628;BMP280;34424;52.234;6.500;2023-05-16T11:32:28;62816.78;;;17.90
48628;BMP280;34424;52.234;6.500;2023-05-16T11:37:34;62645.22;;;16.37
48628;BMP280;34424;52.234;6.500;2023-05-16T11:42:41;62537.09;;;15.54
48628;BMP280;34424;52.234;6.500;2023-05-16T11:47:46;62711.66;;;17.08
48628;BMP280;34424;52.234;6.500;2023-05-16T11:52:52;62843.41;;;18.05
48628;BMP280;34424;52.234;6.500;2023-05-16T11:57:58;62672.66;;;17.06
48628;BMP280;34424;52.234;6.500;2023-05-16T12:03:03;62781.13;;;17.36
48628;BMP280;34424;52.234;6.500;2023-05-16T12:08:09;62628.53;;;16.46
48628;BMP280;34424;52.234;6.500;2023-05-16T12:13:12;62623.25;;;16.46
48628;BMP280;34424;52.234;6.500;2023-05-16T12:18:16;62684.44;;;16.84
48628;BMP280;34424;52.234;6.500;2023-05-16T12:23:21;62580.56;;;15.76
48628;BMP280;34424;52.234;6.500;2023-05-16T12:28:24;62689.53;;;16.74
48628;BMP280;34424;52.234;6.500;2023-05-16T12:33:26;62678.50;;;16.76
48628;BMP280;34424;52.234;6.500;2023-05-16T12:38:31;62587.84;;;16.03
48628;BMP280;34424;52.234;6.500;2023-05-16T12:43:33;62497.25;;;14.96
48628;BMP280;34424;52.234;6.500;2023-05-16T12:48:37;62379.41;;;14.19
48628;BMP280;34424;52.234;6.500;2023-05-16T12:53:43;62339.56;;;13.59
48628;BMP280;34424;52.234;6.500;2023-05-16T12:59:06;62329.38;;;13.46
48628;BMP280;34424;52.234;6.500;2023-05-16T13:04:11;62271.97;;;13.27
48628;BMP280;34424;52.234;6.500;2023-05-16T13:09:18;62291.97;;;13.06
48628;BMP280;34424;52.234;6.500;2023-05-16T13:14:21;62321.44;;;13.41
48628;BMP280;34424;52.234;6.500;2023-05-16T13:19:24;62333.16;;;13.82
48628;BMP280;34424;52.234;6.500;2023-05-16T13:24:29;62340.22;;;13.67
48628;BMP280;34424;52.234;6.500;2023-05-16T13:29:32;62404.47;;;14.13
48628;BMP280;34424;52.234;6.500;2023-05-16T13:34:35;62445.13;;;14.57
48628;BMP280;34424;52.234;6.500;2023-05-16T13:39:40;62444.91;;;14.74
48628;BMP280;34424;52.234;6.500;2023-05-16T13:44:42;62536.25;;;15.66
48628;BMP280;34424;52.234;6.500;2023-05-16T13:49:45;62600.28;;;16.24
48628;BMP280;34424;52.234;6.500;2023-05-16T13:54:50;62617.69;;;16.61
48628;BMP280;34424;52.234;6.500;2023-05-16T13:59:54;62626.53;;;16.54
48628;BMP280;34424;52.234;6.500;2023-05-16T14:05:17;62466.44;;;15.07
48628;BMP280;34424;52.234;6.500;2023-05-16T14:10:21;62427.75;;;14.53
48628;BMP280;34424;52.234;6.500;2023-05-16T14:15:24;62393.16;;;13.67
48628;BMP280;34424;52.234;6.500;2023-05-16T14:20:27;62323.47;;;13.38
48628;BMP280;34424;52.234;6.500;2023-05-16T14:25:32;62371.75;;;13.72
48628;BMP280;34424;52.234;6.500;2023-05-16T14:30:35;62384.25;;;14.26
48628;BMP280;34424;52.234;6.500;2023-05-16T14:35:39;62406.69;;;14.20
48628;BMP280;34424;52.234;6.500;2023-05-16T14:40:44;62331.91;;;13.71
48628;BMP280;34424;52.234;6.500;2023-05-16T14:45:49;62268.47;;;13.08
48628;BMP280;34424;52.234;6.500;2023-05-16T14:50:53;62338.66;;;13.68
48628;BMP280;34424;52.234;6.500;2023-05-16T14:55:57;62419.81;;;14.20
48628;BMP280;34424;52.234;6.500;2023-05-16T15:01:04;62388.91;;;13.93
48628;BMP280;34424;52.234;6.500;2023-05-16T15:06:07;62323.31;;;13.58
48628;BMP280;34424;52.234;6.500;2023-05-16T15:11:13;62279.72;;;13.21
48628;BMP280;34424;52.234;6.500;2023-05-16T15:16:15;62282.22;;;13.16
48628;BMP280;34424;52.234;6.500;2023-05-16T15:21:18;62306.25;;;13.14
48628;BMP280;34424;52.234;6.500;2023-05-16T15:26:23;62240.97;;;12.92
48628;BMP280;34424;52.234;6.500;2023-05-16T15:31:26;62251.56;;;12.72
48628;BMP280;34424;52.234;6.500;2023-05-16T15:36:30;62242.13;;;12.71
48628;BMP280;34424;52.234;6.500;2023-05-16T15:41:35;62247.94;;;13.01
48628;BMP280;34424;52.234;6.500;2023-05-16T15:46:44;62312.59;;;13.45
48628;BMP280;34424;52.234;6.500;2023-05-16T15:51:47;62301.94;;;13.35
48628;BMP280;34424;52.234;6.500;2023-05-16T15:56:51;62273.91;;;13.18
48628;BMP280;34424;52.234;6.500;2023-05-16T16:01:54;62282.38;;;13.24
48628;BMP280;34424;52.234;6.500;2023-05-16T16:06:57;62267.69;;;13.23
48628;BMP280;34424;52.234;6.500;2023-05-16T16:12:02;62244.22;;;13.00
48628;BMP280;34424;52.234;6.500;2023-05-16T16:17:05;62288.34;;;13.07
48628;BMP280;34424;52.234;6.500;2023-05-16T16:22:09;62246.63;;;12.87
48628;BMP280;34424;52.234;6.500;2023-05-16T16:27:17;62242.88;;;12.54
48628;BMP280;34424;52.234;6.500;2023-05-16T16:32:24;62219.19;;;12.46
48628;BMP280;34424;52.234;6.500;2023-05-16T16:37:27;62168.75;;;12.33
48628;BMP280;34424;52.234;6.500;2023-05-16T16:42:32;62184.25;;;12.23
48628;BMP280;34424;52.234;6.500;2023-05-16T16:47:37;62169.16;;;12.26
48628;BMP280;34424;52.234;6.500;2023-05-16T16:52:41;62202.53;;;12.23
48628;BMP280;34424;52.234;6.500;2023-05-16T16:57:46;62163.78;;;12.18
48628;BMP280;34424;52.234;6.500;2023-05-16T17:02:48;62177.47;;;12.24
48628;BMP280;34424;52.234;6.500;2023-05-16T17:07:51;62160.91;;;12.06
48628;BMP280;34424;52.234;6.500;2023-05-16T17:12:56;62162.09;;;12.12
48628;BMP280;34424;52.234;6.500;2023-05-16T17:18:06;62166.78;;;12.11
48628;BMP280;34424;52.234;6.500;2023-05-16T17:23:11;62152.09;;;12.07
48628;BMP280;34424;52.234;6.500;2023-05-16T17:28:15;62171.38;;;12.06
48628;BMP280;34424;52.234;6.500;2023-05-16T17:33:18;62120.38;;;11.62
48628;BMP280;34424;52.234;6.500;2023-05-16T17:38:21;62094.06;;;11.52
48628;BMP280;34424;52.234;6.500;2023-05-16T17:43:28;62073.38;;;11.07
48628;BMP280;34424;52.234;6.500;2023-05-16T17:48:31;62054.25;;;10.89
48628;BMP280;34424;52.234;6.500;2023-05-16T17:53:37;62062.16;;;10.94
48628;BMP280;34424;52.234;6.500;2023-05-16T17:58:42;62071.63;;;10.98
48628;BMP280;34424;52.234;6.500;2023-05-16T18:03:46;62068.50;;;10.97
48628;BMP280;34424;52.234;6.500;2023-05-16T18:08:49;62046.31;;;11.11
48628;BMP280;34424;52.234;6.500;2023-05-16T18:13:53;62068.91;;;11.18
48628;BMP280;34424;52.234;6.500;2023-05-16T18:18:59;62054.25;;;11.16
48628;BMP280;34424;52.234;6.500;2023-05-16T18:24:02;62093.28;;;11.11
48628;BMP280;34424;52.234;6.500;2023-05-16T18:29:09;62039.84;;;11.00
48628;BMP280;34424;52.234;6.500;2023-05-16T18:34:12;62037.91;;;10.81
48628;BMP280;34424;52.234;6.500;2023-05-16T18:39:15;61984.13;;;10.49
48628;BMP280;34424;52.234;6.500;2023-05-16T18:44:23;62015.25;;;10.41
48628;BMP280;34424;52.234;6.500;2023-05-16T18:49:30;61996.78;;;10.31
48628;BMP280;34424;52.234;6.500;2023-05-16T18:54:34;61972.91;;;10.11
48628;BMP280;34424;52.234;6.500;2023-05-16T18:59:39;61950.81;;;10.00
48628;BMP280;34424;52.234;6.500;2023-05-16T19:04:42;61926.06;;;9.86
48628;BMP280;34424;52.234;6.500;2023-05-16T19:09:45;61900.97;;;9.82
48628;BMP280;34424;52.234;6.500;2023-05-16T19:14:50;61919.09;;;9.77
48628;BMP280;34424;52.234;6.500;2023-05-16T19:19:54;61930.22;;;9.60
48628;BMP280;34424;52.234;6.500;2023-05-16T19:24:57;61901.63;;;9.38
48628;BMP280;34424;52.234;6.500;2023-05-16T19:30:04;61878.06;;;9.05
48628;BMP280;34424;52.234;6.500;2023-05-16T19:35:08;61856.16;;;8.77
48628;BMP280;34424;52.234;6.500;2023-05-16T19:40:11;61805.16;;;8.50
48628;BMP280;34424;52.234;6.500;2023-05-16T19:45:19;61779.16;;;8.25
48628;BMP280;34424;52.234;6.500;2023-05-16T19:50:22;61825.44;;;8.05
48628;BMP280;34424;52.234;6.500;2023-05-16T19:55:25;61762.19;;;8.09
48628;BMP280;34424;52.234;6.500;2023-05-16T20:00:31;61759.63;;;7.87
48628;BMP280;34424;52.234;6.500;2023-05-16T20:05:35;61751.78;;;7.84
48628;BMP280;34424;52.234;6.500;2023-05-16T20:10:38;61758.28;;;7.73
48628;BMP280;34424;52.234;6.500;2023-05-16T20:15:44;61749.00;;;7.77
48628;BMP280;34424;52.234;6.500;2023-05-16T20:20:47;61759.31;;;7.96
48628;BMP280;34424;52.234;6.500;2023-05-16T20:25:55;61780.53;;;8.17
48628;BMP280;34424;52.234;6.500;2023-05-16T20:30:59;61827.06;;;8.31
48628;BMP280;34424;52.234;6.500;2023-05-16T20:36:03;61835.06;;;8.39
48628;BMP280;34424;52.234;6.500;2023-05-16T20:41:06;61807.44;;;8.35
48628;BMP280;34424;52.234;6.500;2023-05-16T20:46:12;61792.13;;;8.25
48628;BMP280;34424;52.234;6.500;2023-05-16T20:51:16;61750.03;;;8.00
48628;BMP280;34424;52.234;6.500;2023-05-16T20:56:19;61729.31;;;7.78
48628;BMP280;34424;52.234;6.500;2023-05-16T21:01:25;61775.69;;;7.62
48628;BMP280;34424;52.234;6.500;2023-05-16T21:06:30;61708.81;;;7.65
48628;BMP280;34424;52.234;6.500;2023-05-16T21:11:34;61788.94;;;7.75
48628;BMP280;34424;52.234;6.500;2023-05-16T21:16:38;61754.56;;;7.69
48628;BMP280;34424;52.234;6.500;2023-05-16T21:21:42;61761.34;;;7.49
48628;BMP280;34424;52.234;6.500;2023-05-16T21:26:46;61696.72;;;7.34
48628;BMP280;34424;52.234;6.500;2023-05-16T21:31:53;61709.38;;;7.21
48628;BMP280;34424;52.234;6.500;2023-05-16T21:36:58;61675.88;;;7.06
48628;BMP280;34424;52.234;6.500;2023-05-16T21:42:03;61678.75;;;7.19
48628;BMP280;34424;52.234;6.500;2023-05-16T21:47:08;61703.31;;;7.28
48628;BMP280;34424;52.234;6.500;2023-05-16T21:52:12;61710.38;;;7.42
48628;BMP280;34424;52.234;6.500;2023-05-16T21:57:15;61736.31;;;7.42
48628;BMP280;34424;52.234;6.500;2023-05-16T22:02:19;61720.44;;;7.29
48628;BMP280;34424;52.234;6.500;2023-05-16T22:07:23;61698.00;;;7.23
48628;BMP280;34424;52.234;6.500;2023-05-16T22:12:32;61699.84;;;7.12
48628;BMP280;34424;52.234;6.500;2023-05-16T22:17:37;61682.94;;;6.98
48628;BMP280;34424;52.234;6.500;2023-05-16T22:22:42;61692.13;;;6.92
48628;BMP280;34424;52.234;6.500;2023-05-16T22:27:45;61677.69;;;6.96
48628;BMP280;34424;52.234;6.500;2023-05-16T22:32:49;61687.47;;;6.93
48628;BMP280;34424;52.234;6.500;2023-05-16T22:37:52;61634.41;;;6.84
48628;BMP280;34424;52.234;6.500;2023-05-16T22:42:57;61656.56;;;6.78
48628;BMP280;34424;52.234;6.500;2023-05-16T22:48:03;61668.41;;;6.74
48628;BMP280;34424;52.234;6.500;2023-05-16T22:53:10;61637.09;;;6.64
48628;BMP280;34424;52.234;6.500;2023-05-16T22:58:13;61628.50;;;6.51
48628;BMP280;34424;52.234;6.500;2023-05-16T23:03:17;61628.31;;;6.43
48628;BMP280;34424;52.234;6.500;2023-05-16T23:08:21;61629.97;;;6.47
48628;BMP280;34424;52.234;6.500;2023-05-16T23:13:24;61662.63;;;6.49
48628;BMP280;34424;52.234;6.500;2023-05-16T23:18:28;61614.97;;;6.48
48628;BMP280;34424;52.234;6.500;2023-05-16T23:23:31;61687.91;;;6.46
48628;BMP280;34424;52.234;6.500;2023-05-16T23:28:35;61612.31;;;6.45
48628;BMP280;34424;52.234;6.500;2023-05-16T23:33:39;61654.78;;;6.46
48628;BMP280;34424;52.234;6.500;2023-05-16T23:38:41;61648.44;;;6.40
48628;BMP280;34424;52.234;6.500;2023-05-16T23:43:44;61588.38;;;6.40
48628;BMP280;34424;52.234;6.500;2023-05-16T23:48:49;61617.84;;;6.38
48628;BMP280;34424;52.234;6.500;2023-05-16T23:53:52;61578.31;;;6.30
48628;BMP280;34424;52.234;6.500;2023-05-16T23:58:55;61646.59;;;6.29
